createdAt,value
2022-12-24T00:01:23.045Z,68.21
2022-12-24T00:04:20.506Z,68.42
2022-12-24T00:07:18.589Z,69.78
2022-12-24T00:10:16.780Z,69.72
2022-12-24T00:13:14.335Z,67.72
2022-12-24T00:16:12.198Z,66.83
2022-12-24T00:19:09.653Z,67.40
2022-12-24T00:22:07.725Z,65.34
2022-12-24T00:25:05.342Z,65.05
2022-12-24T00:28:02.959Z,66.09
2022-12-24T00:31:00.470Z,65.26
2022-12-24T00:33:58.180Z,66.07
2022-12-24T00:36:55.746Z,64.97
2022-12-24T00:39:53.816Z,63.66
2022-12-24T00:42:51.241Z,63.61
2022-12-24T00:45:49.185Z,64.15
2022-12-24T00:48:46.711Z,64.07
2022-12-24T00:51:44.663Z,63.96
2022-12-24T00:54:42.078Z,63.23
2022-12-24T00:57:40.016Z,61.81
2022-12-24T01:00:37.438Z,62.67
2022-12-24T01:03:38.248Z,62.73
2022-12-24T01:06:35.853Z,61.79
2022-12-24T01:09:33.732Z,62.04
2022-12-24T01:12:31.142Z,64.75
2022-12-24T01:15:28.960Z,62.90
2022-12-24T01:18:26.407Z,62.34
2022-12-24T01:21:24.298Z,62.91
2022-12-24T01:27:39.395Z,61.57
2022-12-24T01:30:37.791Z,63.26
2022-12-24T01:33:35.256Z,62.58
2022-12-24T01:36:33.047Z,61.39
2022-12-24T01:39:30.467Z,61.52
2022-12-24T01:42:46.097Z,63.40
2022-12-24T01:45:43.572Z,64.42
2022-12-24T01:48:41.283Z,62.54
2022-12-24T01:51:38.956Z,61.79
2022-12-24T01:54:36.406Z,61.34
2022-12-24T01:57:34.093Z,60.59
2022-12-24T02:00:31.499Z,61.29
2022-12-24T02:03:29.211Z,62.10
2022-12-24T02:06:26.832Z,64.07
2022-12-24T02:09:24.547Z,65.76
2022-12-24T02:12:22.138Z,62.10
2022-12-24T02:15:19.559Z,61.55
2022-12-24T02:18:17.246Z,62.47
2022-12-24T02:21:14.684Z,62.23
2022-12-24T02:24:12.475Z,60.34
2022-12-24T02:27:10.462Z,56.85
2022-12-24T02:30:07.905Z,56.97
2022-12-24T02:33:05.567Z,57.86
2022-12-24T02:36:03.429Z,60.26
2022-12-24T02:39:01.211Z,67.36
2022-12-24T02:42:08.053Z,67.35
2022-12-24T02:45:05.711Z,64.15
2022-12-24T02:48:03.411Z,63.12
2022-12-24T02:51:00.828Z,62.27
2022-12-24T02:53:59.854Z,60.94
2022-12-24T02:56:57.288Z,60.70
2022-12-24T02:59:54.879Z,57.49
2022-12-24T03:02:52.634Z,57.12
2022-12-24T03:05:50.923Z,58.51
2022-12-24T03:08:48.709Z,60.14
2022-12-24T03:11:46.127Z,64.87
2022-12-24T03:14:43.832Z,66.85
2022-12-24T03:17:41.278Z,65.08
2022-12-24T03:20:38.898Z,63.81
2022-12-24T03:23:36.575Z,63.58
2022-12-24T03:26:34.042Z,62.82
2022-12-24T03:29:31.746Z,63.52
2022-12-24T03:32:29.159Z,62.72
2022-12-24T03:35:26.958Z,62.91
2022-12-24T03:38:24.765Z,64.24
2022-12-24T03:41:22.213Z,65.25
2022-12-24T03:44:19.957Z,63.58
2022-12-24T03:47:17.453Z,62.78
2022-12-24T03:50:15.503Z,62.15
2022-12-24T03:53:12.960Z,61.09
2022-12-24T03:56:10.578Z,61.58
2022-12-24T03:59:08.019Z,62.09
2022-12-24T04:02:05.848Z,62.69
2022-12-24T04:05:03.452Z,62.36
2022-12-24T04:08:01.115Z,61.38
2022-12-24T04:11:00.420Z,61.46
2022-12-24T04:13:59.890Z,61.36
2022-12-24T04:16:57.748Z,60.41
2022-12-24T04:19:55.242Z,57.69
2022-12-24T04:22:52.955Z,58.17
2022-12-24T04:25:50.365Z,58.68
2022-12-24T04:28:48.056Z,60.49
2022-12-24T04:31:45.930Z,62.60
2022-12-24T04:34:43.387Z,66.13
2022-12-24T04:37:41.078Z,63.45
2022-12-24T04:40:38.519Z,61.65
2022-12-24T04:43:36.241Z,61.55
2022-12-24T04:46:34.010Z,61.66
2022-12-24T04:49:31.457Z,61.65
2022-12-24T04:52:29.192Z,61.65
2022-12-24T04:55:26.677Z,62.15
2022-12-24T04:58:24.454Z,61.08
2022-12-24T05:01:21.992Z,62.36
2022-12-24T05:04:19.785Z,62.64
2022-12-24T05:07:17.223Z,61.38
2022-12-24T05:10:15.014Z,57.61
2022-12-24T05:13:12.455Z,55.84
2022-12-24T05:16:10.211Z,57.26
2022-12-24T05:19:08.002Z,58.45
2022-12-24T05:22:23.045Z,63.03
2022-12-24T05:25:38.456Z,64.95
2022-12-24T05:28:35.870Z,63.40
2022-12-24T05:31:33.720Z,61.44
2022-12-24T05:34:31.458Z,57.76
2022-12-24T05:37:28.887Z,57.01
2022-12-24T05:40:26.672Z,58.18
2022-12-24T05:43:24.104Z,60.04
2022-12-24T05:46:21.909Z,63.91
2022-12-24T05:49:19.463Z,65.89
2022-12-24T05:52:17.168Z,63.63
2022-12-24T05:55:14.611Z,62.85
2022-12-24T05:58:12.362Z,65.37
2022-12-24T06:01:09.842Z,62.13
2022-12-24T06:04:07.645Z,57.89
2022-12-24T06:07:05.372Z,57.62
2022-12-24T06:10:02.815Z,59.05
2022-12-24T06:13:00.607Z,60.25
2022-12-24T06:15:58.081Z,64.09
2022-12-24T06:18:55.817Z,64.45
2022-12-24T06:21:53.588Z,62.34
2022-12-24T06:24:51.009Z,64.19
2022-12-24T06:27:48.604Z,62.18
2022-12-24T06:30:46.050Z,58.53
2022-12-24T06:33:43.828Z,56.96
2022-12-24T06:36:41.272Z,57.56
2022-12-24T06:39:38.965Z,59.97
2022-12-24T06:42:36.423Z,61.36
2022-12-24T06:45:34.100Z,61.17
2022-12-24T06:48:31.528Z,67.48
2022-12-24T06:51:29.126Z,67.29
2022-12-24T06:54:26.773Z,64.37
2022-12-24T06:57:24.232Z,61.94
2022-12-24T07:00:22.212Z,56.92
2022-12-24T07:03:19.690Z,55.39
2022-12-24T07:06:17.667Z,57.13
2022-12-24T07:09:15.396Z,57.27
2022-12-24T07:12:13.152Z,57.84
2022-12-24T07:15:10.605Z,59.98
2022-12-24T07:18:08.309Z,63.85
2022-12-24T07:21:06.476Z,69.22
2022-12-24T07:24:03.884Z,68.03
2022-12-24T07:27:01.590Z,64.41
2022-12-24T07:29:59.041Z,57.83
2022-12-24T07:32:56.646Z,54.63
2022-12-24T07:35:55.969Z,55.34
2022-12-24T07:38:53.890Z,55.90
2022-12-24T07:41:51.654Z,57.56
2022-12-24T07:44:49.093Z,58.63
2022-12-24T07:47:46.887Z,59.95
2022-12-24T07:50:44.327Z,65.37
2022-12-24T07:53:47.928Z,69.38
2022-12-24T07:56:45.460Z,65.35
2022-12-24T07:59:43.163Z,59.03
2022-12-24T08:02:40.723Z,56.32
2022-12-24T08:05:38.608Z,56.38
2022-12-24T08:08:36.254Z,58.90
2022-12-24T08:11:33.680Z,59.97
2022-12-24T08:14:31.491Z,60.31
2022-12-24T08:17:32.433Z,65.65
2022-12-24T08:20:30.386Z,67.00
2022-12-24T08:23:27.819Z,63.83
2022-12-24T08:26:25.274Z,63.10
2022-12-24T08:29:22.938Z,62.18
2022-12-24T08:32:20.668Z,60.38
2022-12-24T08:35:18.284Z,61.26
2022-12-24T08:38:15.797Z,60.11
2022-12-24T08:41:13.402Z,57.85
2022-12-24T08:44:10.805Z,56.74
2022-12-24T08:47:08.563Z,57.78
2022-12-24T08:50:06.025Z,58.75
2022-12-24T08:53:03.797Z,60.88
2022-12-24T08:56:01.217Z,67.33
2022-12-24T08:58:58.800Z,68.11
2022-12-24T09:01:56.553Z,63.89
2022-12-24T09:04:55.048Z,61.89
2022-12-24T09:07:52.719Z,58.52
2022-12-24T09:10:50.179Z,56.22
2022-12-24T09:13:47.858Z,57.38
2022-12-24T09:16:45.383Z,57.92
2022-12-24T09:19:43.208Z,59.24
2022-12-24T09:22:40.672Z,60.35
2022-12-24T09:25:38.376Z,65.97
2022-12-24T09:28:36.704Z,66.32
2022-12-24T09:31:34.208Z,63.32
2022-12-24T09:34:31.931Z,61.76
2022-12-24T09:37:29.397Z,60.50
2022-12-24T09:40:27.265Z,58.39
2022-12-24T09:43:24.727Z,56.00
2022-12-24T09:46:22.633Z,56.73
2022-12-24T09:49:20.159Z,57.93
2022-12-24T09:52:17.792Z,58.81
2022-12-24T09:55:15.428Z,60.59
2022-12-24T09:58:12.866Z,60.51
2022-12-24T10:01:10.733Z,61.98
2022-12-24T10:04:08.595Z,65.00
2022-12-24T10:07:06.339Z,66.58
2022-12-24T10:10:03.926Z,62.62
2022-12-24T10:13:01.675Z,60.42
2022-12-24T10:15:59.128Z,58.69
2022-12-24T10:18:56.923Z,57.13
2022-12-24T10:21:54.670Z,58.02
2022-12-24T10:24:52.154Z,60.51
2022-12-24T10:27:49.884Z,60.09
2022-12-24T10:30:47.342Z,61.00
2022-12-24T10:33:45.155Z,63.70
2022-12-24T10:36:42.697Z,63.98
2022-12-24T10:39:40.412Z,63.10
2022-12-24T10:42:37.839Z,61.59
2022-12-24T10:45:35.602Z,60.56
2022-12-24T10:48:33.360Z,58.01
2022-12-24T10:51:30.811Z,56.40
2022-12-24T10:54:28.573Z,58.27
2022-12-24T10:57:26.089Z,58.42
2022-12-24T11:00:27.107Z,59.82
2022-12-24T11:03:29.671Z,60.68
2022-12-24T11:06:27.153Z,61.63
2022-12-24T11:09:24.888Z,61.51
2022-12-24T11:12:22.296Z,64.58
2022-12-24T11:15:20.002Z,63.57
2022-12-24T11:18:17.473Z,61.80
2022-12-24T11:21:15.064Z,63.57
2022-12-24T11:24:12.687Z,57.48
2022-12-24T11:27:10.126Z,54.79
2022-12-24T11:30:11.766Z,55.66
2022-12-24T11:33:09.605Z,56.98
2022-12-24T11:36:07.220Z,57.09
2022-12-24T11:39:04.641Z,59.04
2022-12-24T11:42:02.253Z,59.88
2022-12-24T11:44:59.827Z,60.43
2022-12-24T11:47:57.258Z,59.92
2022-12-24T11:50:54.944Z,60.57
2022-12-24T11:53:52.393Z,64.01
2022-12-24T11:56:50.251Z,70.52
2022-12-24T11:59:47.912Z,64.16
2022-12-24T12:02:45.388Z,57.73
2022-12-24T12:05:43.181Z,54.14
2022-12-24T12:08:40.627Z,54.47
2022-12-24T12:11:38.382Z,56.66
2022-12-24T12:14:35.836Z,56.74
2022-12-24T12:17:33.536Z,58.31
2022-12-24T12:20:31.298Z,59.32
2022-12-24T12:23:28.718Z,60.71
2022-12-24T12:26:26.506Z,61.66
2022-12-24T12:29:23.941Z,65.65
2022-12-24T12:32:21.640Z,65.14
2022-12-24T12:35:19.105Z,63.65
2022-12-24T12:38:16.972Z,57.95
2022-12-24T12:41:14.660Z,54.26
2022-12-24T12:44:12.113Z,54.65
2022-12-24T12:47:09.943Z,55.03
2022-12-24T12:50:08.270Z,56.60
2022-12-24T12:53:06.004Z,57.18
2022-12-24T12:56:03.445Z,58.80
2022-12-24T12:59:01.244Z,58.78
2022-12-24T13:01:59.051Z,59.67
2022-12-24T13:04:56.651Z,59.85
2022-12-24T13:07:54.251Z,60.91
2022-12-24T13:10:51.684Z,62.55
2022-12-24T13:13:49.369Z,65.55
2022-12-24T13:16:46.885Z,63.68
2022-12-24T13:19:44.769Z,58.59
2022-12-24T13:22:42.398Z,56.03
2022-12-24T13:25:39.837Z,56.12
2022-12-24T13:28:37.653Z,56.90
2022-12-24T13:31:35.131Z,57.47
2022-12-24T13:34:32.900Z,57.65
2022-12-24T13:37:30.369Z,59.02
2022-12-24T13:40:28.116Z,59.66
2022-12-24T13:43:25.800Z,60.18
2022-12-24T13:46:23.439Z,61.08
2022-12-24T13:49:21.351Z,64.98
2022-12-24T13:52:19.767Z,67.38
2022-12-24T13:55:17.486Z,63.77
2022-12-24T13:58:15.101Z,57.63
2022-12-24T14:01:12.722Z,53.22
2022-12-24T14:04:10.635Z,53.94
2022-12-24T14:07:09.284Z,55.18
2022-12-24T14:10:07.649Z,56.52
2022-12-24T14:13:09.092Z,57.95
2022-12-24T14:16:06.914Z,59.37
2022-12-24T14:19:04.644Z,59.45
2022-12-24T14:22:02.088Z,60.69
2022-12-24T14:24:59.806Z,64.64
2022-12-24T14:27:57.252Z,68.07
2022-12-24T14:30:54.994Z,65.62
2022-12-24T14:33:52.420Z,62.63
2022-12-24T14:36:50.332Z,57.65
2022-12-24T14:39:48.157Z,54.96
2022-12-24T14:42:45.606Z,55.25
2022-12-24T14:45:43.453Z,57.44
2022-12-24T14:48:40.906Z,57.70
2022-12-24T14:51:38.660Z,59.14
2022-12-24T14:54:36.708Z,60.00
2022-12-24T14:57:34.137Z,60.35
2022-12-24T15:00:37.600Z,65.44
2022-12-24T15:03:36.958Z,67.15
2022-12-24T15:06:34.686Z,65.37
2022-12-24T15:09:34.123Z,63.93
2022-12-24T15:12:31.753Z,62.41
2022-12-24T15:15:29.168Z,57.53
2022-12-24T15:18:26.845Z,54.14
2022-12-24T15:21:24.529Z,54.61
2022-12-24T15:24:21.955Z,55.86
2022-12-24T15:27:19.708Z,57.11
2022-12-24T15:30:17.158Z,58.12
2022-12-24T15:33:14.869Z,59.70
2022-12-24T15:36:12.279Z,59.87
2022-12-24T15:39:09.994Z,65.64
2022-12-24T15:42:18.229Z,71.72
2022-12-24T15:45:18.053Z,68.66
2022-12-24T15:48:21.412Z,64.72
2022-12-24T15:51:18.872Z,56.89
2022-12-24T15:54:16.547Z,52.15
2022-12-24T15:57:13.988Z,52.81
2022-12-24T16:00:12.392Z,55.08
2022-12-24T16:03:10.424Z,55.67
2022-12-24T16:06:08.365Z,56.55
2022-12-24T16:09:06.099Z,57.95
2022-12-24T16:12:03.875Z,58.63
2022-12-24T16:15:01.739Z,59.39
2022-12-24T16:17:59.170Z,61.04
2022-12-24T16:20:56.850Z,67.43
2022-12-24T16:23:54.619Z,69.03
2022-12-24T16:26:52.037Z,65.13
2022-12-24T16:29:49.742Z,61.68
2022-12-24T16:32:47.160Z,56.94
2022-12-24T16:35:44.857Z,54.18
2022-12-24T16:38:56.148Z,55.02
2022-12-24T16:42:11.520Z,56.25
2022-12-24T16:45:09.599Z,57.35
2022-12-24T16:48:07.023Z,59.19
2022-12-24T16:51:04.729Z,59.78
2022-12-24T16:54:02.144Z,60.55
2022-12-24T16:56:59.859Z,66.19
2022-12-24T16:59:57.284Z,69.59
2022-12-24T17:02:55.113Z,65.70
2022-12-24T17:05:52.652Z,63.07
2022-12-24T17:08:50.249Z,58.26
2022-12-24T17:11:47.658Z,54.57
2022-12-24T17:14:45.443Z,54.75
2022-12-24T17:17:43.204Z,55.90
2022-12-24T17:20:40.631Z,56.89
2022-12-24T17:23:38.336Z,57.97
2022-12-24T17:26:35.772Z,59.16
2022-12-24T17:29:33.854Z,59.95
2022-12-24T17:32:32.474Z,61.38
2022-12-24T17:35:30.729Z,68.92
2022-12-24T17:38:28.158Z,69.28
2022-12-24T17:41:25.785Z,64.52
2022-12-24T17:44:23.425Z,59.19
2022-12-24T17:47:20.834Z,54.98
2022-12-24T17:50:18.638Z,54.70
2022-12-24T17:53:16.069Z,55.59
2022-12-24T17:56:15.882Z,57.01
2022-12-24T17:59:14.144Z,57.36
2022-12-24T18:02:11.949Z,58.23
2022-12-24T18:05:09.842Z,59.22
2022-12-24T18:08:07.280Z,59.69
2022-12-24T18:11:04.954Z,60.23
2022-12-24T18:14:02.408Z,60.79
2022-12-24T18:17:00.194Z,66.84
2022-12-24T18:19:57.676Z,69.00
2022-12-24T18:22:55.269Z,67.50
2022-12-24T18:25:52.697Z,64.43
2022-12-24T18:28:50.379Z,57.77
2022-12-24T18:31:48.138Z,53.34
2022-12-24T18:34:45.659Z,53.05
2022-12-24T18:37:43.430Z,53.95
2022-12-24T18:40:40.888Z,54.80
2022-12-24T18:43:38.753Z,55.71
2022-12-24T18:46:36.282Z,56.60
2022-12-24T18:49:34.018Z,57.37
2022-12-24T18:52:32.587Z,58.31
2022-12-24T18:55:30.349Z,59.23
2022-12-24T18:58:27.771Z,59.70
2022-12-24T19:01:25.760Z,60.15
2022-12-24T19:04:23.634Z,60.67
2022-12-24T19:07:21.072Z,65.68
2022-12-24T19:10:18.856Z,70.26
2022-12-24T19:13:16.281Z,66.96
2022-12-24T19:16:14.372Z,60.30
2022-12-24T19:19:12.513Z,54.93
2022-12-24T19:22:09.966Z,54.25
2022-12-24T19:25:07.722Z,54.77
2022-12-24T19:28:08.818Z,55.74
2022-12-24T19:31:06.648Z,56.54
2022-12-24T19:34:04.154Z,57.35
2022-12-24T19:37:01.843Z,57.80
2022-12-24T19:39:59.275Z,58.71
2022-12-24T19:42:57.012Z,59.29
2022-12-24T19:45:54.531Z,59.56
2022-12-24T19:48:52.397Z,60.15
2022-12-24T19:51:50.030Z,60.75
2022-12-24T19:54:47.456Z,61.01
2022-12-24T19:57:45.124Z,63.81
2022-12-24T20:00:43.107Z,67.69
2022-12-24T20:03:40.929Z,67.54
2022-12-24T20:06:39.552Z,65.32
2022-12-24T20:09:37.401Z,59.68
2022-12-24T20:12:34.814Z,54.34
2022-12-24T20:15:32.633Z,53.79
2022-12-24T20:18:30.043Z,54.44
2022-12-24T20:21:27.732Z,54.98
2022-12-24T20:24:25.443Z,55.65
2022-12-24T20:27:25.667Z,56.40
2022-12-24T20:30:23.403Z,57.19
2022-12-24T20:33:20.846Z,58.02
2022-12-24T20:36:18.613Z,58.88
2022-12-24T20:39:17.322Z,59.50
2022-12-24T20:42:14.755Z,60.08
2022-12-24T20:45:12.463Z,60.50
2022-12-24T20:48:09.900Z,67.38
2022-12-24T20:51:07.774Z,71.03
2022-12-24T20:54:05.235Z,68.23
2022-12-24T20:57:03.018Z,64.63
2022-12-24T21:00:00.768Z,57.74
2022-12-24T21:02:58.274Z,52.96
2022-12-24T21:05:55.940Z,52.63
2022-12-24T21:08:53.364Z,53.27
2022-12-24T21:12:09.199Z,54.05
2022-12-24T21:15:06.609Z,54.61
2022-12-24T21:18:10.504Z,55.58
2022-12-24T21:21:07.925Z,56.40
2022-12-24T21:24:06.447Z,57.41
2022-12-24T21:27:04.112Z,57.74
2022-12-24T21:30:01.543Z,58.20
2022-12-24T21:32:59.229Z,58.77
2022-12-24T21:35:56.650Z,59.11
2022-12-24T21:38:54.255Z,59.68
2022-12-24T21:41:51.668Z,60.19
2022-12-24T21:44:49.395Z,60.65
2022-12-24T21:47:46.813Z,61.26
2022-12-24T21:50:56.490Z,66.44
2022-12-24T21:54:12.122Z,71.02
2022-12-24T21:57:27.230Z,68.13
2022-12-24T22:00:27.173Z,63.66
2022-12-24T22:03:24.668Z,57.03
2022-12-24T22:06:40.061Z,53.27
2022-12-24T22:09:55.692Z,52.99
2022-12-24T22:12:53.612Z,53.76
2022-12-24T22:15:51.353Z,54.60
2022-12-24T22:18:48.767Z,55.63
2022-12-24T22:21:46.558Z,56.78
2022-12-24T22:24:43.981Z,57.48
2022-12-24T22:27:41.580Z,58.22
2022-12-24T22:30:39.350Z,59.39
2022-12-24T22:33:37.154Z,60.25
2022-12-24T22:36:34.874Z,60.79
2022-12-24T22:39:32.325Z,65.70
2022-12-24T22:42:30.118Z,68.13
2022-12-24T22:45:27.568Z,67.66
2022-12-24T22:48:25.268Z,64.91
2022-12-24T22:51:22.756Z,66.38
2022-12-24T22:54:20.458Z,64.70
2022-12-24T22:57:17.898Z,64.06
2022-12-24T23:00:17.848Z,58.51
2022-12-24T23:03:15.635Z,54.13
2022-12-24T23:06:13.167Z,54.26
2022-12-24T23:09:10.943Z,55.36
2022-12-24T23:12:08.358Z,56.35
2022-12-24T23:15:06.291Z,57.62
2022-12-24T23:18:04.011Z,58.86
2022-12-24T23:21:01.428Z,59.91
2022-12-24T23:23:59.166Z,65.77
2022-12-24T23:26:56.584Z,69.83
2022-12-24T23:29:54.281Z,67.22
2022-12-24T23:32:51.692Z,64.54
2022-12-24T23:35:49.316Z,58.90
2022-12-24T23:38:46.727Z,55.41
2022-12-24T23:41:44.349Z,55.72
2022-12-24T23:44:42.099Z,56.89
2022-12-24T23:47:39.535Z,58.12
2022-12-24T23:50:38.039Z,59.20
2022-12-24T23:53:35.472Z,60.09
2022-12-24T23:56:33.236Z,66.09
2022-12-24T23:59:30.679Z,69.72
